Indianapolis, IN (46277)

4:17 AM EST on December 10, 2016 (GMT -0500)
Mile Square | | Change Station

Elev 715 ft 39.77 °N, 86.15 °W | Updated 1 minute ago

Overcast
Overcast
24.1 °F
Feels Like 24 °F
N
0.6
Wind Variable Wind from SW
Gusts 1.9 mph

Today
High -- | Low -- °F
--% Chance of Precip.
Yesterday
High -- | Low -- °F
Precip. -- in
Pressure 30.56 in
Visibility 10.0 miles
Clouds Overcast 12000 ft
Windchill 24 °F
Dew Point 16 °F
Humidity 72%
Rainfall 1.08 in
Snow Depth Not available.
7:55 AM 5:20 PM
Waxing Gibbous, 82% visible
METAR KIND 100854Z 26006KT 10SM OVC120 M06/M09 A3052 RMK AO2 SLP346 T10611089 50001
Pressure 30.56 in
Visibility 10.0 miles
Clouds Overcast 12000 ft
Windchill 24 °F
Dew Point 16 °F
Humidity 72%
Rainfall 1.08 in
Snow Depth Not available.
7:55 AM 5:20 PM
Waxing Gibbous, 82% visible
METAR KIND 100854Z 26006KT 10SM OVC120 M06/M09 A3052 RMK AO2 SLP346 T10611089 50001

10-Day Weather Forecast

Almanac

Astronomy

Dec. 10, 2016 Rise Set
Actual Time
Civil Twilight
Nautical Twilight
Astronomical Twilight
Moon
Length of Visible Light
Length of Day
Tomorrow will be .
, % of the Moon is Illuminated

Today's Extremes

State Highs State Lows

Community

WunderPhotos

Upload Photos

1,956,538 photos uploaded!

WunderBlog® & News

Nearby

Air Quality

  Air Quality AQ Index Pollutant
Not available.

Snow Depth

Station Depth Elevation

Earthquake Activity

City Distance Mag. Time & Date
Minimum magnitude displayed is 2.5.

Coastal Water Temperatures

Place Temperature

Stations

Nearby Weather Stations

Station Location Temp. Windchill Dew Point Humidity Wind Precip. Elev Updated Type
                   

Watches & Warnings

There are currently no watches in effect.